Georgetown, MA (01833)

1:43 PM EDT on August 04, 2015 (GMT -0400)
Bayberry Lane | | Change Station
CLOSE
Current Station
Personal Weather Station
Location: Georgetown, MA
Elevation: 102 ft
Nearby Weather Stations
Active Advisory: Severe Thunderstorm Watch

Elev 102 ft 42.73 °N, 70.97 °W | Updated 39 seconds ago

Overcast
Overcast
80.6 °F
Feels Like 84 °F
N
0.0
Wind Variable Wind from WSW
Gusts 0.0 mph

Today
High -- | Low -- °F
--% Chance of Precip.
Yesterday
High -- | Low -- °F
Precip. -- in
5:38 AM 8:01 PM
Waning Gibbous, 76% visible
Pressure 29.82 in
Visibility 10.0 miles
Clouds Mostly Cloudy 3600 ft
Mostly Cloudy 4400 ft
Overcast 7500 ft
Heat Index 84 °F
Dew Point 70 °F
Humidity 69%
Rainfall 0.00 in
Snow Depth Not available.
UV 3.0 out of 12
Pollen 5.70 out of 12
Air Quality Not available.
Flu Activity Not available.
METAR KLWM 041654Z 23006KT 10SM BKN036 BKN044 OVC075 27/19 A2983 RMK AO2 SLP098 T02720189

More Conditions Fewer Conditions

Pressure 29.82 in
Visibility 10.0 miles
Clouds Mostly Cloudy 3600 ft
Mostly Cloudy 4400 ft
Overcast 7500 ft
Heat Index 84 °F
Dew Point 70 °F
Humidity 69%
Rainfall 0.00 in
Snow Depth Not available.
UV 3.0 out of 12
Pollen 5.70 out of 12
Air Quality Not available.
Flu Activity Not available.
METAR KLWM 041654Z 23006KT 10SM BKN036 BKN044 OVC075 27/19 A2983 RMK AO2 SLP098 T02720189

More Conditions Fewer Conditions

10-Day Weather Forecast

×

Almanac

Astronomy

Aug. 04, 2015 Rise Set
Actual Time
Civil Twilight
Nautical Twilight
Astronomical Twilight
Moon
Length of Visible Light
Length of Day
Tomorrow will be .
, % of the Moon is Illuminated

Today's Extremes

State Highs State Lows

Community

WunderPhotos

Upload Photos

1,843,927 photos uploaded!

WunderBlogs® & News

Nearby

Air Quality

  Air Quality AQ Index Pollutant
Not available.

Snow Depth

Station Depth Elevation

Earthquake Activity

City Distance Mag. Time & Date
Minimum magnitude displayed is 2.5.

Coastal Water Temperatures

Place Temperature

Stations

Nearby Weather Stations

Station Location Temp. Windchill Dew Point Humidity Wind Precip. Elev Updated Type
                   
Severe Thunderstorm Watch
Statement as of 1:29 PM EDT on August 04, 2015

Severe Thunderstorm Watch 469 remains in effect until 800 PM EDT

MA
. Massachusetts counties included are

Berkshire Essex Franklin
Hampden Hampshire Middlesex
Norfolk Suffolk Worcester